Time;durP1;ratioP1;P1;durP2;ratioP2;P2;SDS_P1;SDS_P2;PMS_P1;PMS_P2;Temp;Humidity;BMP_temperature;BMP_pressure;BME280_temperature;BME280_humidity;BME280_pressure;Samples;Min_cycle;Max_cycle;Signal;HPM_P1;HPM_P2
2022/02/28 00:00:17;;;;;;;17.23;9.73;;;;;;;-4.00;89.58;100288.41;4187028;28;20379;-72
2022/02/28 00:02:18;;;;;;;21.05;10.77;;;;;;;-4.04;87.93;100283.72;4189046;28;20036;-71
2022/02/28 00:04:20;;;;;;;22.42;11.05;;;;;;;-4.12;88.44;100284.91;4187082;28;20044;-72
2022/02/28 00:06:21;;;;;;;27.77;10.20;;;;;;;-4.13;89.99;100290.56;4186940;28;20048;-72
2022/02/28 00:08:21;;;;;;;17.83;10.77;;;;;;;-4.22;90.31;100284.66;4186204;28;20044;-72
2022/02/28 00:10:23;;;;;;;21.58;10.90;;;;;;;-4.30;90.58;100275.06;4193528;28;20043;-72
2022/02/28 00:12:23;;;;;;;15.98;9.68;;;;;;;-4.34;91.26;100281.16;4194080;28;20076;-72
2022/02/28 00:14:24;;;;;;;18.95;11.13;;;;;;;-4.42;91.03;100286.94;4187541;28;20072;-72
2022/02/28 00:16:24;;;;;;;21.17;10.40;;;;;;;-4.47;91.54;100293.03;4186775;28;20094;-72
2022/02/28 00:18:25;;;;;;;20.90;9.80;;;;;;;-4.56;91.94;100280.94;4185776;28;20051;-72
2022/02/28 00:20:25;;;;;;;19.00;10.10;;;;;;;-4.60;93.36;100290.56;4186419;28;20446;-72
2022/02/28 00:22:25;;;;;;;21.30;11.05;;;;;;;-4.64;94.64;100295.59;4186535;28;20090;-72
2022/02/28 00:24:26;;;;;;;19.63;10.77;;;;;;;-4.71;96.37;100291.41;4186266;28;20037;-72
2022/02/28 00:26:26;;;;;;;16.42;8.82;;;;;;;-4.70;96.50;100301.16;4186250;28;20043;-72
2022/02/28 00:28:26;;;;;;;19.92;9.77;;;;;;;-4.73;97.12;100290.78;4185633;28;20040;-72
2022/02/28 00:30:27;;;;;;;20.02;10.77;;;;;;;-4.68;96.96;100285.53;4185918;28;20048;-72
2022/02/28 00:32:27;;;;;;;19.60;10.20;;;;;;;-4.66;95.72;100297.72;4185758;28;20063;-71
2022/02/28 00:34:28;;;;;;;23.38;11.00;;;;;;;-4.65;94.96;100293.97;4186308;28;20123;-71
2022/02/28 00:36:28;;;;;;;22.40;10.25;;;;;;;-4.59;95.65;100289.50;4192726;28;20044;-71
2022/02/28 00:38:29;;;;;;;21.85;9.20;;;;;;;-4.54;94.09;100287.75;4202353;28;20036;-71
2022/02/28 00:40:29;;;;;;;19.98;10.50;;;;;;;-4.48;92.70;100293.25;4200960;28;20055;-71
2022/02/28 00:42:29;;;;;;;20.35;10.50;;;;;;;-4.46;92.94;100292.00;4201051;28;20047;-71
2022/02/28 00:44:30;;;;;;;19.30;10.32;;;;;;;-4.43;92.33;100290.69;4201850;28;20392;-71
2022/02/28 00:46:30;;;;;;;18.55;9.93;;;;;;;-4.46;91.79;100280.38;4200416;28;20396;-71
2022/02/28 00:48:31;;;;;;;19.75;9.85;;;;;;;-4.43;91.96;100280.69;4201132;28;20047;-71
2022/02/28 00:50:32;;;;;;;15.27;8.65;;;;;;;-4.54;90.28;100278.84;4195394;28;20511;-71
2022/02/28 00:52:32;;;;;;;25.00;10.32;;;;;;;-4.60;91.64;100272.50;4202367;28;20055;-71
2022/02/28 00:54:33;;;;;;;21.23;9.65;;;;;;;-4.67;91.58;100273.66;4194150;28;20093;-71
2022/02/28 00:56:33;;;;;;;25.52;9.43;;;;;;;-4.72;91.75;100273.53;4185380;28;20401;-71
2022/02/28 00:58:33;;;;;;;22.55;11.10;;;;;;;-4.73;93.13;100269.19;4197798;28;20120;-71
2022/02/28 01:00:36;;;;;;;20.30;10.13;;;;;;;-4.76;92.57;100275.06;4186715;28;20048;-71
2022/02/28 01:02:36;;;;;;;20.23;10.57;;;;;;;-4.82;92.60;100274.94;4185693;28;20032;-72
2022/02/28 01:04:36;;;;;;;23.10;11.27;;;;;;;-4.84;93.14;100265.44;4186274;28;20388;-71
2022/02/28 01:06:37;;;;;;;31.55;15.23;;;;;;;-4.81;95.18;100275.75;4185909;28;20491;-72
2022/02/28 01:08:39;;;;;;;24.17;12.93;;;;;;;-4.77;94.41;100274.25;4186467;28;20477;-72
2022/02/28 01:10:39;;;;;;;26.80;11.53;;;;;;;-4.79;93.66;100268.25;4185665;28;20075;-72
2022/02/28 01:12:39;;;;;;;22.02;10.55;;;;;;;-4.78;93.62;100264.50;4194898;28;20040;-72
2022/02/28 01:14:40;;;;;;;22.30;11.93;;;;;;;-4.73;92.63;100272.72;4194107;28;20086;-72
2022/02/28 01:16:40;;;;;;;34.05;16.38;;;;;;;-4.82;91.89;100271.41;4199744;28;20082;-71
2022/02/28 01:18:41;;;;;;;25.20;13.90;;;;;;;-4.86;93.17;100275.66;4193157;28;20437;-71
2022/02/28 01:20:42;;;;;;;30.80;14.02;;;;;;;-4.87;94.01;100266.72;4186427;28;20132;-71
2022/02/28 01:22:42;;;;;;;26.80;12.52;;;;;;;-4.95;94.14;100268.94;4201421;28;20427;-71
2022/02/28 01:24:43;;;;;;;24.08;11.75;;;;;;;-4.97;94.32;100265.63;4185972;28;20044;-71
2022/02/28 01:26:45;;;;;;;23.90;12.23;;;;;;;-4.97;95.72;100268.34;4185083;28;20043;-71
2022/02/28 01:28:45;;;;;;;21.85;11.48;;;;;;;-5.01;94.80;100259.91;4187891;28;20499;-71
2022/02/28 01:30:46;;;;;;;21.15;11.75;;;;;;;-5.00;94.17;100266.94;4185460;28;20048;-71
2022/02/28 01:32:46;;;;;;;20.55;11.40;;;;;;;-4.95;94.91;100263.56;4185936;28;20037;-71
2022/02/28 01:34:46;;;;;;;21.80;10.55;;;;;;;-4.95;95.05;100271.66;4186151;28;20436;-71
2022/02/28 01:36:47;;;;;;;18.77;10.68;;;;;;;-4.93;95.09;100266.84;4185007;28;20492;-71
2022/02/28 01:38:47;;;;;;;22.15;11.63;;;;;;;-4.94;94.18;100259.78;4188468;28;20484;-71
2022/02/28 01:40:48;;;;;;;19.90;10.48;;;;;;;-5.00;92.91;100266.94;4185431;28;20055;-71
2022/02/28 01:42:48;;;;;;;20.23;9.98;;;;;;;-5.04;92.81;100264.94;4186017;28;20435;-71
2022/02/28 01:44:49;;;;;;;19.52;10.65;;;;;;;-5.05;94.11;100268.69;4185213;28;20048;-71
2022/02/28 01:46:49;;;;;;;19.45;10.27;;;;;;;-5.06;94.61;100264.34;4185111;28;20274;-71
2022/02/28 01:48:49;;;;;;;19.60;10.75;;;;;;;-5.07;95.20;100266.22;4190973;28;20047;-71
2022/02/28 01:50:50;;;;;;;17.38;9.68;;;;;;;-5.03;94.49;100263.88;4185317;28;20071;-71
2022/02/28 01:52:51;;;;;;;19.17;10.05;;;;;;;-5.05;93.40;100263.28;4192447;28;20068;-71
2022/02/28 01:54:51;;;;;;;21.83;10.48;;;;;;;-5.06;93.00;100261.63;4201853;28;20044;-71
2022/02/28 01:56:52;;;;;;;19.25;9.65;;;;;;;-5.06;92.75;100258.94;4199008;28;20051;-72
2022/02/28 01:58:52;;;;;;;18.27;9.75;;;;;;;-5.05;92.43;100257.88;4200513;28;20263;-72
2022/02/28 02:00:53;;;;;;;20.88;10.10;;;;;;;-5.00;92.15;100258.00;4200168;28;20104;-72
2022/02/28 02:02:54;;;;;;;23.02;10.07;;;;;;;-5.03;91.51;100256.63;4191819;28;20032;-72
2022/02/28 02:04:54;;;;;;;18.27;9.48;;;;;;;-5.06;91.58;100248.97;4185168;28;20492;-72
2022/02/28 02:06:54;;;;;;;17.95;10.50;;;;;;;-5.07;91.30;100246.50;4196343;28;20037;-72
2022/02/28 02:08:55;;;;;;;17.15;9.05;;;;;;;-5.15;91.11;100248.47;4185946;28;20411;-72
2022/02/28 02:10:56;;;;;;;16.88;9.40;;;;;;;-5.23;92.53;100250.69;4186078;28;20515;-72
2022/02/28 02:12:56;;;;;;;17.67;9.30;;;;;;;-5.32;92.85;100252.09;4195419;28;20052;-72
2022/02/28 02:14:57;;;;;;;19.00;9.70;;;;;;;-5.39;93.55;100249.47;4200246;28;20036;-72
2022/02/28 02:16:58;;;;;;;19.27;9.88;;;;;;;-5.39;94.20;100261.09;4199377;28;20082;-72
2022/02/28 02:18:59;;;;;;;22.80;10.30;;;;;;;-5.42;94.84;100253.47;4199711;28;20052;-71
2022/02/28 02:20:59;;;;;;;22.77;9.95;;;;;;;-5.38;95.31;100249.28;4198210;28;20093;-71
2022/02/28 02:23:10;;;;;;;17.38;9.48;;;;;;;-5.43;94.21;100242.91;4188826;28;20032;-71
2022/02/28 02:25:11;;;;;;;23.58;11.00;;;;;;;-5.37;95.26;100237.44;4188607;28;20044;-71
2022/02/28 02:27:11;;;;;;;21.48;10.77;;;;;;;-5.30;95.15;100226.50;4187719;28;20106;-71
2022/02/28 02:29:11;;;;;;;22.88;10.90;;;;;;;-5.28;94.38;100231.69;4187734;28;20051;-71
2022/02/28 02:31:12;;;;;;;21.52;10.88;;;;;;;-5.27;93.71;100234.16;4187857;28;20357;-72
2022/02/28 02:33:14;;;;;;;23.67;10.82;;;;;;;-5.31;93.70;100241.06;4188595;28;20060;-72
2022/02/28 02:35:15;;;;;;;22.40;11.57;;;;;;;-5.34;93.69;100228.03;4187775;28;20045;-72
2022/02/28 02:37:15;;;;;;;25.25;10.50;;;;;;;-5.29;95.07;100230.06;4187419;28;20434;-72
2022/02/28 02:39:15;;;;;;;22.50;10.35;;;;;;;-5.30;94.38;100223.00;4196990;28;20074;-71
2022/02/28 02:41:16;;;;;;;23.60;9.57;;;;;;;-5.31;92.78;100224.03;4202935;28;20126;-72
2022/02/28 02:43:17;;;;;;;24.85;10.82;;;;;;;-5.37;91.50;100228.50;4202923;28;20827;-71
2022/02/28 02:45:17;;;;;;;21.25;10.40;;;;;;;-5.45;92.83;100224.25;4202935;28;20502;-71
2022/02/28 02:47:17;;;;;;;19.88;9.82;;;;;;;-5.56;92.38;100222.34;4188751;28;20148;-71
2022/02/28 02:49:18;;;;;;;17.73;9.93;;;;;;;-5.66;93.91;100225.59;4197557;28;20091;-71
2022/02/28 02:51:18;;;;;;;21.00;9.63;;;;;;;-5.69;95.87;100228.75;4190489;28;20451;-71
2022/02/28 02:53:19;;;;;;;23.65;10.15;;;;;;;-5.70;96.44;100223.59;4192246;28;20146;-71
2022/02/28 02:55:19;;;;;;;16.90;9.10;;;;;;;-5.73;96.21;100219.47;4197770;28;20080;-71
2022/02/28 02:57:20;;;;;;;21.25;10.10;;;;;;;-5.67;97.50;100236.63;4186859;28;20066;-71
2022/02/28 02:59:20;;;;;;;19.48;9.23;;;;;;;-5.65;97.28;100231.81;4188001;28;20067;-71
2022/02/28 03:01:21;;;;;;;19.33;9.60;;;;;;;-5.76;96.16;100222.63;4187579;28;20049;-71
2022/02/28 03:03:22;;;;;;;18.92;10.20;;;;;;;-5.84;96.25;100228.34;4187930;28;20250;-71
2022/02/28 03:05:22;;;;;;;16.52;8.77;;;;;;;-5.90;96.96;100225.75;4187858;28;20422;-71
2022/02/28 03:07:23;;;;;;;16.05;8.80;;;;;;;-5.94;98.32;100233.50;4187458;28;20045;-71
2022/02/28 03:09:23;;;;;;;18.15;9.48;;;;;;;-5.91;98.41;100232.22;4187746;28;20040;-71
2022/02/28 03:11:23;;;;;;;23.27;10.75;;;;;;;-5.96;98.47;100228.34;4187877;28;20110;-71
2022/02/28 03:13:24;;;;;;;22.77;9.85;;;;;;;-6.00;97.61;100226.31;4196236;28;20048;-71
2022/02/28 03:15:24;;;;;;;22.25;10.07;;;;;;;-5.98;98.72;100232.28;4202062;28;20039;-71
2022/02/28 03:17:24;;;;;;;17.63;10.05;;;;;;;-6.00;99.10;100226.31;4202343;28;20099;-71
2022/02/28 03:19:25;;;;;;;20.10;9.43;;;;;;;-6.00;99.54;100237.09;4196951;28;20052;-71
2022/02/28 03:21:25;;;;;;;20.88;10.77;;;;;;;-6.02;98.96;100233.81;4187783;28;20041;-71
2022/02/28 03:23:26;;;;;;;19.25;9.60;;;;;;;-6.01;98.41;100222.81;4187578;28;20048;-71
2022/02/28 03:25:26;;;;;;;22.00;10.20;;;;;;;-5.94;98.66;100233.50;4187242;28;20047;-71
2022/02/28 03:27:27;;;;;;;21.17;9.52;;;;;;;-5.92;97.62;100227.88;4186560;28;20491;-72
2022/02/28 03:29:27;;;;;;;19.48;10.15;;;;;;;-5.83;97.47;100231.88;4187160;28;20138;-72
2022/02/28 03:31:27;;;;;;;21.42;10.85;;;;;;;-5.86;97.09;100221.56;4202606;28;20047;-72
2022/02/28 03:33:28;;;;;;;17.90;9.88;;;;;;;-5.85;97.45;100232.09;4201826;28;20670;-72
2022/02/28 03:35:28;;;;;;;19.23;10.45;;;;;;;-5.82;97.08;100230.81;4187887;28;20044;-72
2022/02/28 03:37:28;;;;;;;18.65;9.93;;;;;;;-5.80;96.53;100226.00;4186499;28;20139;-72
2022/02/28 03:39:29;;;;;;;19.73;9.38;;;;;;;-5.80;96.27;100226.00;4187288;28;20044;-72
2022/02/28 03:41:29;;;;;;;17.88;9.20;;;;;;;-5.81;94.98;100218.97;4186364;28;20272;-72
2022/02/28 03:43:29;;;;;;;15.65;9.32;;;;;;;-5.78;95.16;100218.53;4198921;28;20456;-72
2022/02/28 03:45:30;;;;;;;19.15;9.55;;;;;;;-5.77;95.72;100223.69;4188171;28;20203;-72
2022/02/28 03:47:30;;;;;;;20.15;10.02;;;;;;;-5.83;94.71;100221.91;4186202;28;20051;-71
2022/02/28 03:49:30;;;;;;;26.05;9.18;;;;;;;-5.91;94.16;100219.56;4186921;28;20484;-71
2022/02/28 03:51:31;;;;;;;18.33;9.43;;;;;;;-5.95;94.48;100229.16;4186808;28;20097;-71
2022/02/28 03:53:31;;;;;;;18.20;9.90;;;;;;;-5.99;95.97;100225.25;4194023;28;20404;-71
2022/02/28 03:55:31;;;;;;;21.33;10.40;;;;;;;-6.00;97.32;100226.31;4201773;28;20096;-71
2022/02/28 03:57:32;;;;;;;19.02;10.20;;;;;;;-5.98;96.35;100229.59;4201012;28;20048;-71
2022/02/28 03:59:32;;;;;;;14.73;9.15;;;;;;;-5.98;95.77;100226.91;4187948;28;20040;-71
2022/02/28 04:01:32;;;;;;;20.17;9.63;;;;;;;-6.00;96.25;100220.94;4186652;28;20045;-71
2022/02/28 04:03:33;;;;;;;19.42;9.27;;;;;;;-6.09;96.32;100222.28;4186698;28;20044;-71
2022/02/28 04:05:34;;;;;;;20.27;10.02;;;;;;;-6.10;96.72;100221.47;4186953;28;20500;-72
2022/02/28 04:07:35;;;;;;;18.05;10.48;;;;;;;-6.09;96.84;100216.91;4185603;28;20040;-72
2022/02/28 04:09:36;;;;;;;18.88;10.35;;;;;;;-6.05;96.84;100218.91;4186828;28;20561;-72
2022/02/28 04:11:36;;;;;;;18.85;9.30;;;;;;;-6.06;95.52;100219.13;4194516;28;20481;-72
2022/02/28 04:13:36;;;;;;;19.50;8.43;;;;;;;-6.03;95.58;100219.50;4201024;28;20036;-72
2022/02/28 04:15:37;;;;;;;17.85;9.27;;;;;;;-6.01;95.15;100222.81;4201938;28;20040;-72
2022/02/28 04:17:37;;;;;;;17.17;8.82;;;;;;;-5.99;95.58;100214.47;4200542;28;20219;-72
2022/02/28 04:19:38;;;;;;;17.15;8.63;;;;;;;-6.00;95.04;100218.22;4191481;28;20396;-72
2022/02/28 04:21:39;;;;;;;18.27;8.35;;;;;;;-6.07;93.61;100212.09;4186258;28;20315;-72
2022/02/28 04:23:39;;;;;;;16.20;9.15;;;;;;;-6.08;93.84;100215.84;4186257;28;20515;-72
2022/02/28 04:25:39;;;;;;;17.73;8.57;;;;;;;-6.03;94.92;100207.91;4186330;28;20040;-72
2022/02/28 04:27:40;;;;;;;18.48;8.95;;;;;;;-6.04;95.69;100207.09;4193812;28;20271;-72
2022/02/28 04:29:40;;;;;;;18.33;8.18;;;;;;;-6.05;95.29;100200.03;4201768;28;20555;-72
2022/02/28 04:31:41;;;;;;;15.68;8.20;;;;;;;-6.10;93.88;100197.22;4191135;28;20036;-72
2022/02/28 04:33:41;;;;;;;15.90;8.95;;;;;;;-6.09;93.81;100198.03;4184990;28;20091;-72
2022/02/28 04:35:41;;;;;;;16.92;8.50;;;;;;;-6.14;93.66;100196.00;4193513;28;20048;-73
2022/02/28 04:37:42;;;;;;;19.65;10.48;;;;;;;-6.18;93.43;100185.94;4190321;28;20068;-73
2022/02/28 04:39:42;;;;;;;20.45;9.88;;;;;;;-6.25;92.83;100192.22;4186821;28;20055;-73
2022/02/28 04:41:43;;;;;;;17.80;9.70;;;;;;;-6.30;94.16;100183.97;4190433;28;20074;-73
2022/02/28 04:43:43;;;;;;;16.35;9.38;;;;;;;-6.29;95.68;100198.25;4186658;28;20094;-72
2022/02/28 04:45:43;;;;;;;15.48;8.85;;;;;;;-6.29;96.39;100199.13;4186346;28;20051;-73
2022/02/28 04:47:44;;;;;;;20.38;9.60;;;;;;;-6.29;96.01;100199.13;4185097;28;20567;-72
2022/02/28 04:49:45;;;;;;;20.60;9.77;;;;;;;-6.29;95.41;100193.72;4186967;28;20703;-72
2022/02/28 04:51:45;;;;;;;20.83;11.55;;;;;;;-6.26;95.88;100187.88;4189698;28;20044;-72
2022/02/28 04:53:46;;;;;;;27.83;11.40;;;;;;;-6.34;95.85;100185.50;4190436;28;20052;-72
2022/02/28 04:55:46;;;;;;;20.25;11.77;;;;;;;-6.32;95.74;100186.09;4189767;28;20045;-72
2022/02/28 04:57:46;;;;;;;24.50;11.55;;;;;;;-6.40;95.28;100188.25;4191934;28;20089;-73
2022/02/28 04:59:47;;;;;;;21.30;10.82;;;;;;;-6.43;96.57;100203.00;4192821;28;20036;-73
2022/02/28 05:01:47;;;;;;;19.95;9.50;;;;;;;-6.52;96.44;100199.78;4190603;28;20571;-72
2022/02/28 05:03:48;;;;;;;23.40;10.95;;;;;;;-6.54;97.85;100196.50;4192189;28;20032;-73
2022/02/28 05:05:49;;;;;;;24.08;9.98;;;;;;;-6.53;98.74;100198.16;4191271;28;20044;-73
2022/02/28 05:07:49;;;;;;;18.05;9.85;;;;;;;-6.52;98.39;100189.03;4188120;28;20032;-73
2022/02/28 05:09:49;;;;;;;19.55;8.70;;;;;;;-6.58;96.85;100197.16;4191479;28;20024;-73
2022/02/28 05:11:50;;;;;;;18.73;9.50;;;;;;;-6.64;97.80;100198.88;4188825;28;20036;-73
2022/02/28 05:13:50;;;;;;;24.83;11.38;;;;;;;-6.72;98.24;100201.03;4191673;28;20222;-73
2022/02/28 05:15:50;;;;;;;19.80;10.00;;;;;;;-6.75;98.59;100205.00;4190914;28;20048;-73
2022/02/28 05:17:51;;;;;;;26.65;13.77;;;;;;;-6.72;99.82;100199.19;4204457;28;20458;-73
2022/02/28 05:19:51;;;;;;;26.00;13.73;;;;;;;-6.60;99.42;100200.09;4188298;28;20040;-73
2022/02/28 05:21:51;;;;;;;25.15;12.45;;;;;;;-6.59;99.04;100198.22;4184439;28;20062;-73
2022/02/28 05:23:52;;;;;;;24.88;14.57;;;;;;;-6.58;99.22;100198.00;4189034;28;20082;-73
2022/02/28 05:25:52;;;;;;;33.25;17.35;;;;;;;-6.54;98.58;100196.50;4190302;28;20044;-73
2022/02/28 05:27:53;;;;;;;35.75;17.60;;;;;;;-6.57;97.93;100196.94;4188622;28;20476;-73
2022/02/28 05:29:53;;;;;;;34.20;16.17;;;;;;;-6.58;98.06;100202.56;4190823;28;20037;-73
2022/02/28 05:31:54;;;;;;;32.35;16.48;;;;;;;-6.61;97.15;100206.53;4185453;28;20053;-72
2022/02/28 05:33:55;;;;;;;30.77;16.55;;;;;;;-6.64;97.75;100209.66;4187711;28;20056;-72
2022/02/28 05:35:55;;;;;;;39.45;19.55;;;;;;;-6.66;97.78;100213.63;4186719;28;20048;-72
2022/02/28 05:37:55;;;;;;;28.42;15.80;;;;;;;-6.66;99.57;100217.13;4191548;28;20044;-72
2022/02/28 05:39:56;;;;;;;29.13;14.63;;;;;;;-6.61;99.25;100216.47;4190818;28;20040;-72
2022/02/28 05:41:56;;;;;;;31.45;14.55;;;;;;;-6.58;100.00;100218.72;4189025;28;20458;-72
2022/02/28 05:43:57;;;;;;;25.77;12.50;;;;;;;-6.60;99.53;100215.44;4191398;28;20877;-73
2022/02/28 05:45:57;;;;;;;27.70;12.27;;;;;;;-6.57;98.62;100212.28;4192784;28;20383;-73
2022/02/28 05:47:57;;;;;;;24.63;12.52;;;;;;;-6.56;97.39;100211.22;4189174;28;20439;-73
2022/02/28 05:49:58;;;;;;;23.50;11.27;;;;;;;-6.55;97.15;100216.38;4190711;28;20033;-73
2022/02/28 05:51:58;;;;;;;30.85;14.77;;;;;;;-6.52;96.98;100215.13;4112312;28;20067;-72
2022/02/28 05:53:59;;;;;;;27.60;13.60;;;;;;;-6.51;96.61;100219.47;4189588;28;20044;-72
2022/02/28 05:55:59;;;;;;;26.80;13.10;;;;;;;-6.57;96.13;100223.88;4189583;28;20052;-72
2022/02/28 05:57:59;;;;;;;24.42;12.57;;;;;;;-6.57;96.07;100226.56;4188531;28;20048;-72
2022/02/28 05:59:59;;;;;;;20.83;11.55;;;;;;;-6.53;96.57;100232.34;4189032;28;20171;-73
2022/02/28 06:02:00;;;;;;;27.88;13.13;;;;;;;-6.58;95.23;100235.69;4193458;28;20435;-73
2022/02/28 06:04:01;;;;;;;29.77;12.98;;;;;;;-6.61;95.94;100235.31;4191564;28;20056;-73
2022/02/28 06:06:03;;;;;;;24.58;13.73;;;;;;;-6.58;96.96;100235.69;4189199;28;20072;-72
2022/02/28 06:08:03;;;;;;;26.92;12.13;;;;;;;-6.61;96.40;100232.63;4191116;28;20024;-73
2022/02/28 06:10:04;;;;;;;27.83;13.50;;;;;;;-6.63;97.03;100234.69;4198731;28;20387;-73
2022/02/28 06:12:04;;;;;;;32.08;17.05;;;;;;;-6.63;97.38;100232.81;4193576;28;20024;-73
2022/02/28 06:14:05;;;;;;;32.40;17.48;;;;;;;-6.64;97.77;100233.88;4191683;28;20025;-72
2022/02/28 06:16:05;;;;;;;30.90;15.35;;;;;;;-6.67;97.12;100233.50;4190738;28;20460;-73
2022/02/28 06:18:06;;;;;;;31.90;16.10;;;;;;;-6.68;97.07;100242.63;4199388;28;20044;-73
2022/02/28 06:20:07;;;;;;;26.55;14.40;;;;;;;-6.66;98.14;100243.22;4189959;28;20063;-72
2022/02/28 06:22:07;;;;;;;28.30;14.43;;;;;;;-6.63;98.39;100243.59;4187116;28;20083;-72
2022/02/28 06:24:08;;;;;;;26.50;14.10;;;;;;;-6.67;98.97;100245.09;4188657;28;20440;-73
2022/02/28 06:26:09;;;;;;;31.15;14.70;;;;;;;-6.61;99.01;100252.31;4192605;28;20459;-73
2022/02/28 06:28:10;;;;;;;29.20;13.90;;;;;;;-6.56;98.75;100251.63;4188111;28;20028;-72
2022/02/28 06:30:11;;;;;;;24.63;13.40;;;;;;;-6.60;97.66;100259.31;4188180;28;20392;-72
2022/02/28 06:32:11;;;;;;;25.85;12.85;;;;;;;-6.67;98.22;100266.66;4193548;28;20044;-73
2022/02/28 06:34:13;;;;;;;33.25;13.15;;;;;;;-6.70;98.16;100277.88;4187807;28;20695;-73
2022/02/28 06:36:13;;;;;;;32.67;16.92;;;;;;;-6.71;99.53;100267.28;4186563;28;20036;-73
2022/02/28 06:38:16;;;;;;;35.65;14.93;;;;;;;-6.75;100.00;100269.63;4197782;28;20094;-73
2022/02/28 06:40:16;;;;;;;28.10;12.13;;;;;;;-6.75;100.00;100280.38;4200584;28;20070;-73
2022/02/28 06:42:16;;;;;;;20.85;11.82;;;;;;;-6.75;100.00;100280.38;4201381;28;20063;-73
2022/02/28 06:44:17;;;;;;;28.65;13.80;;;;;;;-6.76;100.00;100281.44;4188116;28;20336;-73
2022/02/28 06:46:18;;;;;;;24.20;12.15;;;;;;;-6.72;100.00;100285.31;4203708;28;20032;-72
2022/02/28 06:48:18;;;;;;;21.05;11.05;;;;;;;-6.70;100.00;100296.72;4203383;28;20028;-72
2022/02/28 06:50:19;;;;;;;20.55;10.73;;;;;;;-6.68;100.00;100291.09;4197874;28;20041;-73
2022/02/28 06:52:21;;;;;;;22.70;11.63;;;;;;;-6.62;100.00;100291.03;4188378;28;20025;-72
2022/02/28 06:54:22;;;;;;;19.98;10.55;;;;;;;-6.56;100.00;100286.63;4188312;28;20305;-72
2022/02/28 06:56:22;;;;;;;27.65;13.13;;;;;;;-6.41;100.00;100291.66;4197544;28;20119;-72
2022/02/28 06:58:23;;;;;;;21.48;11.20;;;;;;;-6.29;99.44;100289.84;4202786;28;20079;-72
2022/02/28 07:00:24;;;;;;;28.23;12.05;;;;;;;-6.17;98.25;100292.66;4188014;28;20053;-72
2022/02/28 07:02:24;;;;;;;19.02;12.00;;;;;;;-6.11;97.73;100292.59;4188383;28;20473;-72
2022/02/28 07:04:24;;;;;;;30.27;13.82;;;;;;;-6.05;97.25;100286.28;4202354;28;20040;-72
2022/02/28 07:06:25;;;;;;;23.42;12.00;;;;;;;-5.98;96.35;100286.19;4203309;28;20396;-73
2022/02/28 07:08:25;;;;;;;25.92;10.30;;;;;;;-5.96;96.47;100292.19;4200559;28;20392;-73
2022/02/28 07:10:26;;;;;;;21.05;11.52;;;;;;;-5.88;95.96;100291.84;4195360;28;20041;-73
2022/02/28 07:12:26;;;;;;;21.60;10.82;;;;;;;-5.81;95.60;100291.75;4188310;28;20132;-73
2022/02/28 07:14:26;;;;;;;27.83;13.45;;;;;;;-5.75;95.57;100290.88;4188267;28;20436;-72
2022/02/28 07:16:28;;;;;;;22.00;11.48;;;;;;;-5.73;95.41;100284.19;4187834;28;20040;-72
2022/02/28 07:18:29;;;;;;;25.65;13.35;;;;;;;-5.71;96.09;100290.19;4187404;28;20090;-72
2022/02/28 07:20:29;;;;;;;26.23;13.20;;;;;;;-5.64;95.73;100287.38;4187398;28;20415;-72
2022/02/28 07:22:29;;;;;;;26.92;11.98;;;;;;;-5.59;95.35;100297.50;4188094;28;20048;-72
2022/02/28 07:24:30;;;;;;;27.25;14.25;;;;;;;-5.52;95.68;100287.44;4187839;28;20139;-72
2022/02/28 07:26:30;;;;;;;34.40;16.92;;;;;;;-5.48;95.02;100291.31;4187359;28;20483;-72
2022/02/28 07:28:31;;;;;;;33.88;15.43;;;;;;;-5.38;95.58;100296.97;4187356;28;20310;-72
2022/02/28 07:30:31;;;;;;;27.90;14.40;;;;;;;-5.40;94.88;100299.09;4187664;28;20033;-72
2022/02/28 07:32:31;;;;;;;31.30;15.55;;;;;;;-5.40;94.81;100297.22;4187414;28;20072;-72
2022/02/28 07:34:32;;;;;;;34.20;15.75;;;;;;;-5.42;95.45;100298.50;4187338;28;20055;-72
2022/02/28 07:36:32;;;;;;;27.45;14.00;;;;;;;-5.38;96.40;100300.53;4187613;28;20056;-72
2022/02/28 07:38:33;;;;;;;27.98;14.40;;;;;;;-5.34;96.62;100303.59;4187456;28;20043;-72
2022/02/28 07:40:34;;;;;;;29.50;14.93;;;;;;;-5.33;96.85;100299.81;4187537;28;20045;-72
2022/02/28 07:42:34;;;;;;;33.92;15.40;;;;;;;-5.31;96.92;100296.91;4187768;28;20132;-72
2022/02/28 07:44:35;;;;;;;43.15;21.20;;;;;;;-5.26;96.41;100294.34;4187714;28;20383;-72
2022/02/28 07:46:35;;;;;;;38.03;19.13;;;;;;;-5.16;98.68;100292.72;4190149;28;20041;-72
2022/02/28 07:48:36;;;;;;;29.45;15.68;;;;;;;-5.03;100.00;100304.38;4194045;28;20365;-72
2022/02/28 07:50:36;;;;;;;29.17;15.82;;;;;;;-4.98;100.00;100304.50;4198844;28;20426;-72
2022/02/28 07:52:36;;;;;;;33.30;17.45;;;;;;;-4.94;99.41;100308.38;4187118;28;20527;-73
2022/02/28 07:54:37;;;;;;;34.63;17.95;;;;;;;-4.89;97.83;100308.50;4187399;28;20127;-73
2022/02/28 07:56:38;;;;;;;33.47;17.88;;;;;;;-4.84;97.03;100311.34;4186691;28;20429;-72
2022/02/28 07:58:39;;;;;;;29.13;16.17;;;;;;;-4.80;96.46;100320.59;4186955;28;20052;-72
2022/02/28 08:00:39;;;;;;;30.15;14.65;;;;;;;-4.76;95.77;100315.56;4187274;28;20047;-72
2022/02/28 08:02:40;;;;;;;35.45;15.57;;;;;;;-4.70;93.93;100318.16;4186899;28;20084;-72
2022/02/28 08:04:40;;;;;;;26.98;14.25;;;;;;;-4.65;93.64;100314.75;4199133;28;20510;-72
2022/02/28 08:06:41;;;;;;;29.17;14.00;;;;;;;-4.62;93.18;100322.41;4194128;28;20048;-72
2022/02/28 08:08:41;;;;;;;24.77;13.85;;;;;;;-4.60;93.93;100325.69;4187642;28;20041;-72
2022/02/28 08:10:42;;;;;;;27.10;13.57;;;;;;;-4.57;94.03;100323.34;4194594;28;20036;-72
2022/02/28 08:12:43;;;;;;;27.42;13.68;;;;;;;-4.52;94.37;100322.66;4196224;28;20044;-72
2022/02/28 08:14:44;;;;;;;26.92;13.38;;;;;;;-4.43;95.96;100331.22;4201909;28;20043;-72
2022/02/28 08:16:44;;;;;;;26.80;13.20;;;;;;;-4.36;95.94;100332.75;4195730;28;20422;-72
2022/02/28 08:18:45;;;;;;;28.92;13.93;;;;;;;-4.31;96.24;100332.84;4201739;28;20039;-72
2022/02/28 08:20:45;;;;;;;25.52;13.00;;;;;;;-4.21;96.15;100328.75;4193733;28;20124;-72
2022/02/28 08:22:45;;;;;;;23.95;12.35;;;;;;;-4.17;95.85;100311.81;4187202;28;20048;-72
2022/02/28 08:24:46;;;;;;;28.92;14.65;;;;;;;-4.08;96.21;100326.63;4186934;28;20467;-72
2022/02/28 08:26:46;;;;;;;21.13;12.27;;;;;;;-3.99;97.26;100327.88;4186083;28;20051;-72
2022/02/28 08:28:46;;;;;;;26.63;13.13;;;;;;;-3.94;96.90;100329.91;4186717;28;20098;-72
2022/02/28 08:30:47;;;;;;;22.38;11.70;;;;;;;-3.89;96.36;100321.06;4185419;28;20098;-72
2022/02/28 08:32:48;;;;;;;19.48;11.52;;;;;;;-3.79;96.45;100318.59;4185419;28;20158;-72
2022/02/28 08:34:48;;;;;;;22.63;11.80;;;;;;;-3.70;96.23;100333.38;4187130;28;20610;-72
2022/02/28 08:36:48;;;;;;;19.15;11.57;;;;;;;-3.67;95.99;100317.47;4186553;28;20430;-72
2022/02/28 08:38:51;;;;;;;24.17;11.02;;;;;;;-3.56;95.85;100328.50;4199411;28;20189;-72
2022/02/28 08:40:52;;;;;;;24.15;11.70;;;;;;;-3.50;94.91;100331.06;4201180;28;20537;-72
2022/02/28 08:42:53;;;;;;;29.20;12.55;;;;;;;-3.43;94.79;100326.34;4202419;28;20081;-72
2022/02/28 08:44:53;;;;;;;23.90;11.52;;;;;;;-3.33;95.38;100322.19;4186431;28;20037;-72
2022/02/28 08:46:54;;;;;;;20.23;11.55;;;;;;;-3.19;96.20;100320.81;4185589;28;20777;-72
2022/02/28 08:48:54;;;;;;;22.38;12.63;;;;;;;-3.10;94.61;100322.06;4186901;28;20047;-72
2022/02/28 08:50:55;;;;;;;19.65;11.55;;;;;;;-3.02;94.79;100323.56;4202606;28;20039;-71
2022/02/28 08:52:55;;;;;;;19.38;11.38;;;;;;;-2.95;94.99;100322.34;4201316;28;20131;-72
2022/02/28 08:54:55;;;;;;;20.75;11.65;;;;;;;-2.86;94.76;100329.00;4192701;28;20040;-71
2022/02/28 08:56:56;;;;;;;22.02;11.77;;;;;;;-2.79;92.99;100322.63;4187690;28;20101;-72
2022/02/28 08:58:56;;;;;;;22.25;11.50;;;;;;;-2.72;89.66;100317.88;4201454;28;20044;-72
2022/02/28 09:00:56;;;;;;;18.02;10.63;;;;;;;-2.65;91.00;100321.19;4200736;28;20055;-72
2022/02/28 09:02:57;;;;;;;21.00;10.35;;;;;;;-2.62;91.25;100315.31;4193093;28;20082;-72
2022/02/28 09:04:57;;;;;;;23.38;11.98;;;;;;;-2.51;92.52;100313.56;4185348;28;20535;-71
2022/02/28 09:06:58;;;;;;;19.48;11.57;;;;;;;-2.42;93.16;100320.22;4185934;28;20048;-72
2022/02/28 09:08:58;;;;;;;19.27;10.45;;;;;;;-2.35;92.58;100320.88;4186364;28;20461;-72